Braxton, Mississippi
Current Conditions -  °F | °C
As of 10:54 AM on Wednesday 22 Oct 2014 (Local Time) from KJAN Reporting Station
Clear Clear  
Wind Chill: 68°   Ceiling: Unl
Heat Index: 68°   Visibility: 10mi
Dew Point: 51°   Wind: 7mph
Humidity: 55%   Direction: 60°ENE
Pressure: 30.17"   Gusts: NA
Location:  32.03°N, 89.97°W
Report Text: KJAN 221554Z 06006KT 10SM CLR 20/11 A3017 RMK AO2 SLP212 T02000106
Loading
Personal Weather Stations






























Interactive Weather Map
Tropical Storm Tracking
New forecast layout! Learn more

10-Day Weather Forecast

Advertisements
Track Severe Weather on mobile